sensor_id;sensor_type;location;lat;lon;timestamp;temperature;humidity
51500;DHT22;39101;53.478;6.158;2023-01-30T00:01:40;6.40;99.90
51500;DHT22;39101;53.478;6.158;2023-01-30T00:04:06;6.50;99.90
51500;DHT22;39101;53.478;6.158;2023-01-30T00:06:32;6.60;99.90
51500;DHT22;39101;53.478;6.158;2023-01-30T00:08:58;6.30;99.90
51500;DHT22;39101;53.478;6.158;2023-01-30T00:11:24;6.50;99.90
51500;DHT22;39101;53.478;6.158;2023-01-30T00:13:50;6.30;99.90
51500;DHT22;39101;53.478;6.158;2023-01-30T00:16:17;6.40;99.90
51500;DHT22;39101;53.478;6.158;2023-01-30T00:18:43;6.20;99.90
51500;DHT22;39101;53.478;6.158;2023-01-30T00:21:11;6.30;99.90
51500;DHT22;39101;53.478;6.158;2023-01-30T00:23:37;6.30;99.90
51500;DHT22;39101;53.478;6.158;2023-01-30T00:26:04;6.30;99.90
51500;DHT22;39101;53.478;6.158;2023-01-30T00:28:30;6.30;99.90
51500;DHT22;39101;53.478;6.158;2023-01-30T00:30:56;6.10;99.90
51500;DHT22;39101;53.478;6.158;2023-01-30T00:33:24;6.00;99.90
51500;DHT22;39101;53.478;6.158;2023-01-30T00:35:51;6.30;99.90
51500;DHT22;39101;53.478;6.158;2023-01-30T00:38:18;6.00;99.90
51500;DHT22;39101;53.478;6.158;2023-01-30T00:40:43;6.40;99.90
51500;DHT22;39101;53.478;6.158;2023-01-30T00:43:12;6.20;99.90
51500;DHT22;39101;53.478;6.158;2023-01-30T00:45:57;6.40;99.90
51500;DHT22;39101;53.478;6.158;2023-01-30T00:48:41;6.40;99.90
51500;DHT22;39101;53.478;6.158;2023-01-30T00:51:07;6.00;99.90
51500;DHT22;39101;53.478;6.158;2023-01-30T00:53:33;6.30;99.90
51500;DHT22;39101;53.478;6.158;2023-01-30T00:55:58;6.20;99.90
51500;DHT22;39101;53.478;6.158;2023-01-30T00:58:24;6.30;99.90
51500;DHT22;39101;53.478;6.158;2023-01-30T01:00:50;6.20;99.90
51500;DHT22;39101;53.478;6.158;2023-01-30T01:03:16;6.10;99.90
51500;DHT22;39101;53.478;6.158;2023-01-30T01:05:42;6.10;99.90
51500;DHT22;39101;53.478;6.158;2023-01-30T01:08:09;6.20;99.90
51500;DHT22;39101;53.478;6.158;2023-01-30T01:10:35;6.40;99.90
51500;DHT22;39101;53.478;6.158;2023-01-30T01:13:00;6.20;99.90
51500;DHT22;39101;53.478;6.158;2023-01-30T01:15:27;6.20;99.90
51500;DHT22;39101;53.478;6.158;2023-01-30T01:17:53;6.20;99.90
51500;DHT22;39101;53.478;6.158;2023-01-30T01:20:20;6.40;99.90
51500;DHT22;39101;53.478;6.158;2023-01-30T01:22:46;6.30;99.90
51500;DHT22;39101;53.478;6.158;2023-01-30T01:25:15;6.40;99.90
51500;DHT22;39101;53.478;6.158;2023-01-30T01:27:41;6.60;99.90
51500;DHT22;39101;53.478;6.158;2023-01-30T01:30:07;6.60;99.90
51500;DHT22;39101;53.478;6.158;2023-01-30T01:32:33;6.60;99.90
51500;DHT22;39101;53.478;6.158;2023-01-30T01:34:59;6.60;99.90
51500;DHT22;39101;53.478;6.158;2023-01-30T01:37:24;6.70;99.90
51500;DHT22;39101;53.478;6.158;2023-01-30T01:39:50;6.70;99.90
51500;DHT22;39101;53.478;6.158;2023-01-30T01:42:36;6.80;99.90
51500;DHT22;39101;53.478;6.158;2023-01-30T01:47:37;6.70;99.90
51500;DHT22;39101;53.478;6.158;2023-01-30T01:50:04;6.70;99.90
51500;DHT22;39101;53.478;6.158;2023-01-30T01:52:30;6.80;99.90
51500;DHT22;39101;53.478;6.158;2023-01-30T01:55:02;6.80;99.90
51500;DHT22;39101;53.478;6.158;2023-01-30T01:57:36;7.00;99.90
51500;DHT22;39101;53.478;6.158;2023-01-30T02:00:16;7.00;99.90
51500;DHT22;39101;53.478;6.158;2023-01-30T02:02:55;6.90;99.90
51500;DHT22;39101;53.478;6.158;2023-01-30T02:05:22;7.00;99.90
51500;DHT22;39101;53.478;6.158;2023-01-30T02:13:27;7.20;99.90
51500;DHT22;39101;53.478;6.158;2023-01-30T02:15:54;7.10;99.90
51500;DHT22;39101;53.478;6.158;2023-01-30T02:18:22;7.10;99.90
51500;DHT22;39101;53.478;6.158;2023-01-30T02:31:56;7.10;99.90
51500;DHT22;39101;53.478;6.158;2023-01-30T02:44:56;7.20;99.90
51500;DHT22;39101;53.478;6.158;2023-01-30T02:47:29;7.20;99.90
51500;DHT22;39101;53.478;6.158;2023-01-30T02:50:27;7.30;99.90
51500;DHT22;39101;53.478;6.158;2023-01-30T02:52:54;7.20;99.90
51500;DHT22;39101;53.478;6.158;2023-01-30T02:55:23;7.10;99.90
51500;DHT22;39101;53.478;6.158;2023-01-30T02:57:50;7.30;99.90
51500;DHT22;39101;53.478;6.158;2023-01-30T03:00:23;7.10;99.90
51500;DHT22;39101;53.478;6.158;2023-01-30T03:06:31;7.10;99.90
51500;DHT22;39101;53.478;6.158;2023-01-30T03:09:15;7.30;99.90
51500;DHT22;39101;53.478;6.158;2023-01-30T03:11:55;7.30;99.90
51500;DHT22;39101;53.478;6.158;2023-01-30T03:14:28;6.80;99.90
51500;DHT22;39101;53.478;6.158;2023-01-30T03:16:56;6.90;99.90
51500;DHT22;39101;53.478;6.158;2023-01-30T03:19:23;7.40;99.90
51500;DHT22;39101;53.478;6.158;2023-01-30T03:21:49;7.30;99.90
51500;DHT22;39101;53.478;6.158;2023-01-30T03:24:15;7.20;99.90
51500;DHT22;39101;53.478;6.158;2023-01-30T03:27:13;7.20;99.90
51500;DHT22;39101;53.478;6.158;2023-01-30T03:29:39;7.10;99.90
51500;DHT22;39101;53.478;6.158;2023-01-30T03:32:04;7.00;99.90
51500;DHT22;39101;53.478;6.158;2023-01-30T03:34:30;6.60;99.90
51500;DHT22;39101;53.478;6.158;2023-01-30T03:36:56;6.90;99.90
51500;DHT22;39101;53.478;6.158;2023-01-30T03:39:23;6.70;99.90
51500;DHT22;39101;53.478;6.158;2023-01-30T03:41:50;7.00;99.90
51500;DHT22;39101;53.478;6.158;2023-01-30T03:44:16;6.50;99.90
51500;DHT22;39101;53.478;6.158;2023-01-30T03:46:42;6.40;99.90
51500;DHT22;39101;53.478;6.158;2023-01-30T03:49:07;6.60;99.90
51500;DHT22;39101;53.478;6.158;2023-01-30T03:51:33;6.90;99.90
51500;DHT22;39101;53.478;6.158;2023-01-30T03:53:59;6.60;99.90
51500;DHT22;39101;53.478;6.158;2023-01-30T03:56:24;6.80;99.90
51500;DHT22;39101;53.478;6.158;2023-01-30T03:58:50;6.50;99.90
51500;DHT22;39101;53.478;6.158;2023-01-30T04:01:16;6.60;99.90
51500;DHT22;39101;53.478;6.158;2023-01-30T04:03:42;6.50;99.90
51500;DHT22;39101;53.478;6.158;2023-01-30T04:06:07;6.60;99.90
51500;DHT22;39101;53.478;6.158;2023-01-30T04:08:33;6.60;99.90
51500;DHT22;39101;53.478;6.158;2023-01-30T04:10:59;6.60;99.90
51500;DHT22;39101;53.478;6.158;2023-01-30T04:13:24;6.60;99.90
51500;DHT22;39101;53.478;6.158;2023-01-30T04:15:50;6.50;99.90
51500;DHT22;39101;53.478;6.158;2023-01-30T04:18:16;6.50;99.90
51500;DHT22;39101;53.478;6.158;2023-01-30T04:20:41;6.60;99.90
51500;DHT22;39101;53.478;6.158;2023-01-30T04:23:07;6.50;99.90
51500;DHT22;39101;53.478;6.158;2023-01-30T04:25:33;6.60;99.90
51500;DHT22;39101;53.478;6.158;2023-01-30T04:27:58;6.60;99.90
51500;DHT22;39101;53.478;6.158;2023-01-30T04:30:24;6.50;99.90
51500;DHT22;39101;53.478;6.158;2023-01-30T04:32:50;6.60;99.90
51500;DHT22;39101;53.478;6.158;2023-01-30T04:35:15;6.50;99.90
51500;DHT22;39101;53.478;6.158;2023-01-30T04:37:41;6.60;99.90
51500;DHT22;39101;53.478;6.158;2023-01-30T04:40:07;6.50;99.90
51500;DHT22;39101;53.478;6.158;2023-01-30T04:42:33;6.40;99.90
51500;DHT22;39101;53.478;6.158;2023-01-30T04:44:58;6.60;99.90
51500;DHT22;39101;53.478;6.158;2023-01-30T04:47:24;6.70;99.90
51500;DHT22;39101;53.478;6.158;2023-01-30T04:49:50;6.40;99.90
51500;DHT22;39101;53.478;6.158;2023-01-30T04:52:16;6.40;99.90
51500;DHT22;39101;53.478;6.158;2023-01-30T04:54:41;6.40;99.90
51500;DHT22;39101;53.478;6.158;2023-01-30T04:57:07;6.60;99.90
51500;DHT22;39101;53.478;6.158;2023-01-30T04:59:33;6.30;99.90
51500;DHT22;39101;53.478;6.158;2023-01-30T05:01:58;6.50;99.90
51500;DHT22;39101;53.478;6.158;2023-01-30T05:04:24;6.40;99.90
51500;DHT22;39101;53.478;6.158;2023-01-30T05:06:49;6.40;99.90
51500;DHT22;39101;53.478;6.158;2023-01-30T05:09:15;6.60;99.90
51500;DHT22;39101;53.478;6.158;2023-01-30T05:11:41;6.50;99.90
51500;DHT22;39101;53.478;6.158;2023-01-30T05:14:06;6.60;99.90
51500;DHT22;39101;53.478;6.158;2023-01-30T05:16:32;6.50;99.90
51500;DHT22;39101;53.478;6.158;2023-01-30T05:18:58;6.60;99.90
51500;DHT22;39101;53.478;6.158;2023-01-30T05:21:25;6.60;99.90
51500;DHT22;39101;53.478;6.158;2023-01-30T05:23:54;6.60;99.90
51500;DHT22;39101;53.478;6.158;2023-01-30T05:26:21;6.60;99.90
51500;DHT22;39101;53.478;6.158;2023-01-30T05:28:51;6.60;99.90
51500;DHT22;39101;53.478;6.158;2023-01-30T05:31:17;6.40;99.90
51500;DHT22;39101;53.478;6.158;2023-01-30T05:33:46;6.50;99.90
51500;DHT22;39101;53.478;6.158;2023-01-30T05:36:14;6.60;99.90
51500;DHT22;39101;53.478;6.158;2023-01-30T05:38:41;6.50;99.90
51500;DHT22;39101;53.478;6.158;2023-01-30T05:41:10;6.40;99.90
51500;DHT22;39101;53.478;6.158;2023-01-30T05:43:36;6.60;99.90
51500;DHT22;39101;53.478;6.158;2023-01-30T05:46:03;6.50;99.90
51500;DHT22;39101;53.478;6.158;2023-01-30T05:48:30;6.60;99.90
51500;DHT22;39101;53.478;6.158;2023-01-30T05:50:58;6.50;99.90
51500;DHT22;39101;53.478;6.158;2023-01-30T05:53:27;6.60;99.90
51500;DHT22;39101;53.478;6.158;2023-01-30T05:56:01;6.70;99.90
51500;DHT22;39101;53.478;6.158;2023-01-30T05:58:27;6.80;99.90
51500;DHT22;39101;53.478;6.158;2023-01-30T06:00:53;6.80;99.90
51500;DHT22;39101;53.478;6.158;2023-01-30T06:03:19;6.70;99.90
51500;DHT22;39101;53.478;6.158;2023-01-30T06:05:45;6.60;99.90
51500;DHT22;39101;53.478;6.158;2023-01-30T06:08:11;6.70;99.90
51500;DHT22;39101;53.478;6.158;2023-01-30T06:10:37;6.70;99.90
51500;DHT22;39101;53.478;6.158;2023-01-30T06:13:03;6.50;99.90
51500;DHT22;39101;53.478;6.158;2023-01-30T06:15:28;6.80;99.90
51500;DHT22;39101;53.478;6.158;2023-01-30T06:17:54;6.80;99.90
51500;DHT22;39101;53.478;6.158;2023-01-30T06:20:20;6.90;99.90
51500;DHT22;39101;53.478;6.158;2023-01-30T06:22:47;6.90;99.90
51500;DHT22;39101;53.478;6.158;2023-01-30T06:25:13;7.00;99.90
51500;DHT22;39101;53.478;6.158;2023-01-30T06:27:38;6.50;99.90
51500;DHT22;39101;53.478;6.158;2023-01-30T06:30:04;6.60;99.90
51500;DHT22;39101;53.478;6.158;2023-01-30T06:32:30;6.80;99.90
51500;DHT22;39101;53.478;6.158;2023-01-30T06:34:56;6.90;99.90
51500;DHT22;39101;53.478;6.158;2023-01-30T06:37:21;6.80;99.90
51500;DHT22;39101;53.478;6.158;2023-01-30T06:39:47;6.80;99.90
51500;DHT22;39101;53.478;6.158;2023-01-30T06:42:13;6.80;99.90
51500;DHT22;39101;53.478;6.158;2023-01-30T06:44:38;6.70;99.90
51500;DHT22;39101;53.478;6.158;2023-01-30T06:47:04;6.70;99.90
51500;DHT22;39101;53.478;6.158;2023-01-30T06:49:29;6.70;99.90
51500;DHT22;39101;53.478;6.158;2023-01-30T06:51:55;6.60;99.90
51500;DHT22;39101;53.478;6.158;2023-01-30T06:54:21;6.90;99.90
51500;DHT22;39101;53.478;6.158;2023-01-30T06:56:46;6.50;99.90
51500;DHT22;39101;53.478;6.158;2023-01-30T06:59:12;6.90;99.90
51500;DHT22;39101;53.478;6.158;2023-01-30T07:01:38;6.50;99.90
51500;DHT22;39101;53.478;6.158;2023-01-30T07:04:04;6.90;99.90
51500;DHT22;39101;53.478;6.158;2023-01-30T07:06:30;6.60;99.90
51500;DHT22;39101;53.478;6.158;2023-01-30T07:08:55;6.70;99.90
51500;DHT22;39101;53.478;6.158;2023-01-30T07:11:23;6.60;99.90
51500;DHT22;39101;53.478;6.158;2023-01-30T07:13:49;6.80;99.90
51500;DHT22;39101;53.478;6.158;2023-01-30T07:16:15;6.50;99.90
51500;DHT22;39101;53.478;6.158;2023-01-30T07:18:40;6.80;99.90
51500;DHT22;39101;53.478;6.158;2023-01-30T07:21:06;6.60;99.90
51500;DHT22;39101;53.478;6.158;2023-01-30T07:23:32;6.90;99.90
51500;DHT22;39101;53.478;6.158;2023-01-30T07:25:57;6.50;99.90
51500;DHT22;39101;53.478;6.158;2023-01-30T07:28:23;6.60;99.90
51500;DHT22;39101;53.478;6.158;2023-01-30T07:30:49;6.60;99.90
51500;DHT22;39101;53.478;6.158;2023-01-30T07:33:17;6.80;99.90
51500;DHT22;39101;53.478;6.158;2023-01-30T07:35:43;6.90;99.90
51500;DHT22;39101;53.478;6.158;2023-01-30T07:38:09;6.50;99.90
51500;DHT22;39101;53.478;6.158;2023-01-30T07:40:35;7.10;99.90
51500;DHT22;39101;53.478;6.158;2023-01-30T07:43:10;6.90;99.90
51500;DHT22;39101;53.478;6.158;2023-01-30T07:45:42;7.00;99.90
51500;DHT22;39101;53.478;6.158;2023-01-30T07:48:10;6.60;99.90
51500;DHT22;39101;53.478;6.158;2023-01-30T07:50:36;6.60;99.90
51500;DHT22;39101;53.478;6.158;2023-01-30T07:53:06;7.00;99.90
51500;DHT22;39101;53.478;6.158;2023-01-30T07:55:32;6.60;99.90
51500;DHT22;39101;53.478;6.158;2023-01-30T07:57:58;6.50;99.90
51500;DHT22;39101;53.478;6.158;2023-01-30T08:00:25;6.80;99.90
51500;DHT22;39101;53.478;6.158;2023-01-30T08:02:51;6.60;99.90
51500;DHT22;39101;53.478;6.158;2023-01-30T08:05:16;6.60;99.90
51500;DHT22;39101;53.478;6.158;2023-01-30T08:07:42;6.60;99.90
51500;DHT22;39101;53.478;6.158;2023-01-30T08:10:08;7.10;99.90
51500;DHT22;39101;53.478;6.158;2023-01-30T08:12:34;7.10;99.90
51500;DHT22;39101;53.478;6.158;2023-01-30T08:15:00;7.10;99.90
51500;DHT22;39101;53.478;6.158;2023-01-30T08:17:26;7.20;99.90
51500;DHT22;39101;53.478;6.158;2023-01-30T08:19:51;7.20;99.90
51500;DHT22;39101;53.478;6.158;2023-01-30T08:22:17;6.80;99.90
51500;DHT22;39101;53.478;6.158;2023-01-30T08:24:43;6.80;99.90
51500;DHT22;39101;53.478;6.158;2023-01-30T08:27:08;7.20;99.90
51500;DHT22;39101;53.478;6.158;2023-01-30T08:29:34;6.80;99.90
51500;DHT22;39101;53.478;6.158;2023-01-30T08:32:00;6.70;99.90
51500;DHT22;39101;53.478;6.158;2023-01-30T08:34:26;6.90;99.90
51500;DHT22;39101;53.478;6.158;2023-01-30T08:36:52;7.20;99.90
51500;DHT22;39101;53.478;6.158;2023-01-30T08:39:17;7.30;99.90
51500;DHT22;39101;53.478;6.158;2023-01-30T08:41:44;6.90;99.90
51500;DHT22;39101;53.478;6.158;2023-01-30T08:44:10;7.20;99.90
51500;DHT22;39101;53.478;6.158;2023-01-30T08:46:37;7.30;99.90
51500;DHT22;39101;53.478;6.158;2023-01-30T08:49:03;7.20;99.90
51500;DHT22;39101;53.478;6.158;2023-01-30T08:51:29;7.50;99.90
51500;DHT22;39101;53.478;6.158;2023-01-30T08:53:54;7.30;99.90
51500;DHT22;39101;53.478;6.158;2023-01-30T08:56:20;6.90;99.90
51500;DHT22;39101;53.478;6.158;2023-01-30T08:58:46;6.80;99.90
51500;DHT22;39101;53.478;6.158;2023-01-30T09:01:13;6.80;99.90
51500;DHT22;39101;53.478;6.158;2023-01-30T09:03:39;7.00;99.90
51500;DHT22;39101;53.478;6.158;2023-01-30T09:06:05;7.20;99.90
51500;DHT22;39101;53.478;6.158;2023-01-30T09:08:31;7.40;99.90
51500;DHT22;39101;53.478;6.158;2023-01-30T09:10:58;7.40;99.90
51500;DHT22;39101;53.478;6.158;2023-01-30T09:13:24;7.10;99.90
51500;DHT22;39101;53.478;6.158;2023-01-30T09:15:50;7.50;99.90
51500;DHT22;39101;53.478;6.158;2023-01-30T09:18:16;7.30;99.90
51500;DHT22;39101;53.478;6.158;2023-01-30T09:20:42;7.40;99.90
51500;DHT22;39101;53.478;6.158;2023-01-30T09:23:07;7.50;99.90
51500;DHT22;39101;53.478;6.158;2023-01-30T09:25:33;7.00;99.90
51500;DHT22;39101;53.478;6.158;2023-01-30T09:27:59;7.40;99.90
51500;DHT22;39101;53.478;6.158;2023-01-30T09:30:25;7.60;99.90
51500;DHT22;39101;53.478;6.158;2023-01-30T09:32:51;7.40;99.90
51500;DHT22;39101;53.478;6.158;2023-01-30T09:35:17;7.20;99.90
51500;DHT22;39101;53.478;6.158;2023-01-30T09:37:50;7.20;99.90
51500;DHT22;39101;53.478;6.158;2023-01-30T09:40:19;7.50;99.90
51500;DHT22;39101;53.478;6.158;2023-01-30T09:43:14;7.40;99.90
51500;DHT22;39101;53.478;6.158;2023-01-30T09:48:30;7.10;99.90
51500;DHT22;39101;53.478;6.158;2023-01-30T09:51:11;7.70;99.90
51500;DHT22;39101;53.478;6.158;2023-01-30T09:56:17;7.60;99.90
51500;DHT22;39101;53.478;6.158;2023-01-30T09:58:58;7.70;99.90
51500;DHT22;39101;53.478;6.158;2023-01-30T10:04:43;7.80;99.90
51500;DHT22;39101;53.478;6.158;2023-01-30T10:15:31;5.70;99.90
51500;DHT22;39101;53.478;6.158;2023-01-30T10:23:37;5.80;99.90
51500;DHT22;39101;53.478;6.158;2023-01-30T10:26:14;5.80;99.90
51500;DHT22;39101;53.478;6.158;2023-01-30T10:29:05;5.90;99.90
51500;DHT22;39101;53.478;6.158;2023-01-30T10:31:49;6.10;99.90
51500;DHT22;39101;53.478;6.158;2023-01-30T10:34:29;6.70;99.90
51500;DHT22;39101;53.478;6.158;2023-01-30T10:44:31;6.50;99.90
51500;DHT22;39101;53.478;6.158;2023-01-30T10:49:55;7.00;99.90
51500;DHT22;39101;53.478;6.158;2023-01-30T10:54:54;7.10;99.90
51500;DHT22;39101;53.478;6.158;2023-01-30T11:00:03;7.00;99.90
51500;DHT22;39101;53.478;6.158;2023-01-30T11:05:48;7.20;99.90
51500;DHT22;39101;53.478;6.158;2023-01-30T11:08:25;7.70;99.90
51500;DHT22;39101;53.478;6.158;2023-01-30T11:10:52;7.50;99.90
51500;DHT22;39101;53.478;6.158;2023-01-30T11:13:30;7.40;99.90
51500;DHT22;39101;53.478;6.158;2023-01-30T11:15:58;7.80;99.90
51500;DHT22;39101;53.478;6.158;2023-01-30T11:18:26;7.60;99.90
51500;DHT22;39101;53.478;6.158;2023-01-30T11:21:03;7.30;99.90
51500;DHT22;39101;53.478;6.158;2023-01-30T11:23:38;7.50;99.90
51500;DHT22;39101;53.478;6.158;2023-01-30T11:26:04;7.60;99.90
51500;DHT22;39101;53.478;6.158;2023-01-30T11:28:39;7.50;99.90
51500;DHT22;39101;53.478;6.158;2023-01-30T11:31:19;7.50;99.90
51500;DHT22;39101;53.478;6.158;2023-01-30T11:34:02;7.50;99.90
51500;DHT22;39101;53.478;6.158;2023-01-30T11:36:34;7.50;99.90
51500;DHT22;39101;53.478;6.158;2023-01-30T11:39:03;7.50;99.90
51500;DHT22;39101;53.478;6.158;2023-01-30T11:41:29;7.60;99.90
51500;DHT22;39101;53.478;6.158;2023-01-30T11:44:02;7.50;99.90
51500;DHT22;39101;53.478;6.158;2023-01-30T11:46:37;7.50;99.90
51500;DHT22;39101;53.478;6.158;2023-01-30T11:49:14;7.70;99.90
51500;DHT22;39101;53.478;6.158;2023-01-30T11:51:43;7.50;99.90
51500;DHT22;39101;53.478;6.158;2023-01-30T11:54:17;7.50;99.90
51500;DHT22;39101;53.478;6.158;2023-01-30T11:56:55;7.50;99.90
51500;DHT22;39101;53.478;6.158;2023-01-30T11:59:31;7.50;99.90
51500;DHT22;39101;53.478;6.158;2023-01-30T12:04:30;7.70;99.90
51500;DHT22;39101;53.478;6.158;2023-01-30T12:07:19;7.80;99.90
51500;DHT22;39101;53.478;6.158;2023-01-30T12:09:45;8.00;99.90
51500;DHT22;39101;53.478;6.158;2023-01-30T12:15:24;7.60;99.90
51500;DHT22;39101;53.478;6.158;2023-01-30T12:20:59;7.90;99.90
51500;DHT22;39101;53.478;6.158;2023-01-30T12:23:54;7.90;99.90
51500;DHT22;39101;53.478;6.158;2023-01-30T12:26:42;7.90;99.90
51500;DHT22;39101;53.478;6.158;2023-01-30T12:29:34;7.90;99.90
51500;DHT22;39101;53.478;6.158;2023-01-30T12:32:21;7.90;99.90
51500;DHT22;39101;53.478;6.158;2023-01-30T12:34:49;7.90;99.90
51500;DHT22;39101;53.478;6.158;2023-01-30T12:45:24;7.60;99.90
51500;DHT22;39101;53.478;6.158;2023-01-30T12:48:16;7.80;99.90
51500;DHT22;39101;53.478;6.158;2023-01-30T12:50:59;7.70;99.90
51500;DHT22;39101;53.478;6.158;2023-01-30T13:04:12;7.70;99.90
51500;DHT22;39101;53.478;6.158;2023-01-30T13:12:22;8.00;99.90
51500;DHT22;39101;53.478;6.158;2023-01-30T13:15:07;7.60;99.90
51500;DHT22;39101;53.478;6.158;2023-01-30T13:18:02;8.10;99.90
51500;DHT22;39101;53.478;6.158;2023-01-30T13:20:42;8.10;99.90
51500;DHT22;39101;53.478;6.158;2023-01-30T13:26:05;8.00;99.90
51500;DHT22;39101;53.478;6.158;2023-01-30T13:31:10;8.20;99.90
51500;DHT22;39101;53.478;6.158;2023-01-30T13:33:42;8.00;99.90
51500;DHT22;39101;53.478;6.158;2023-01-30T13:36:24;8.10;99.90
51500;DHT22;39101;53.478;6.158;2023-01-30T13:41:24;8.10;99.90
51500;DHT22;39101;53.478;6.158;2023-01-30T13:43:52;8.10;99.90
51500;DHT22;39101;53.478;6.158;2023-01-30T13:46:26;8.30;99.90
51500;DHT22;39101;53.478;6.158;2023-01-30T13:49:10;8.30;99.90
51500;DHT22;39101;53.478;6.158;2023-01-30T13:51:51;8.30;99.90
51500;DHT22;39101;53.478;6.158;2023-01-30T14:04:56;8.10;99.90
51500;DHT22;39101;53.478;6.158;2023-01-30T14:07:40;8.00;99.90
51500;DHT22;39101;53.478;6.158;2023-01-30T14:10:16;7.80;99.90
51500;DHT22;39101;53.478;6.158;2023-01-30T14:12:45;7.70;99.90
51500;DHT22;39101;53.478;6.158;2023-01-30T14:20:49;8.30;99.90
51500;DHT22;39101;53.478;6.158;2023-01-30T14:23:27;7.90;99.90
51500;DHT22;39101;53.478;6.158;2023-01-30T14:25:55;7.80;99.90
51500;DHT22;39101;53.478;6.158;2023-01-30T14:30:54;8.00;99.90
51500;DHT22;39101;53.478;6.158;2023-01-30T14:38:17;8.20;99.90
51500;DHT22;39101;53.478;6.158;2023-01-30T14:40:45;7.30;99.90
51500;DHT22;39101;53.478;6.158;2023-01-30T14:45:57;6.70;99.90
51500;DHT22;39101;53.478;6.158;2023-01-30T14:51:22;6.60;99.90
51500;DHT22;39101;53.478;6.158;2023-01-30T14:54:01;6.60;99.90
51500;DHT22;39101;53.478;6.158;2023-01-30T15:09:45;7.30;99.90
51500;DHT22;39101;53.478;6.158;2023-01-30T15:18:04;7.30;99.90
51500;DHT22;39101;53.478;6.158;2023-01-30T15:20:58;7.00;99.90
51500;DHT22;39101;53.478;6.158;2023-01-30T15:26:36;7.00;99.90
51500;DHT22;39101;53.478;6.158;2023-01-30T15:31:33;7.00;99.90
51500;DHT22;39101;53.478;6.158;2023-01-30T15:33:58;7.00;99.90
51500;DHT22;39101;53.478;6.158;2023-01-30T15:36:25;6.60;99.90
51500;DHT22;39101;53.478;6.158;2023-01-30T15:38:57;6.60;99.90
51500;DHT22;39101;53.478;6.158;2023-01-30T15:41:23;6.80;99.90
51500;DHT22;39101;53.478;6.158;2023-01-30T15:52:03;7.00;99.90
51500;DHT22;39101;53.478;6.158;2023-01-30T15:54:29;7.00;99.90
51500;DHT22;39101;53.478;6.158;2023-01-30T15:56:57;7.00;99.90
51500;DHT22;39101;53.478;6.158;2023-01-30T15:59:42;7.30;99.90
51500;DHT22;39101;53.478;6.158;2023-01-30T16:02:14;7.00;99.90
51500;DHT22;39101;53.478;6.158;2023-01-30T16:04:40;6.80;99.90
51500;DHT22;39101;53.478;6.158;2023-01-30T16:07:22;6.70;99.90
51500;DHT22;39101;53.478;6.158;2023-01-30T16:09:55;7.00;99.90
51500;DHT22;39101;53.478;6.158;2023-01-30T16:12:23;6.50;99.90
51500;DHT22;39101;53.478;6.158;2023-01-30T16:14:48;6.90;99.90
51500;DHT22;39101;53.478;6.158;2023-01-30T16:17:15;6.60;99.90
51500;DHT22;39101;53.478;6.158;2023-01-30T16:19:43;6.40;99.90
51500;DHT22;39101;53.478;6.158;2023-01-30T16:22:19;6.40;99.90
51500;DHT22;39101;53.478;6.158;2023-01-30T16:24:49;6.40;99.90
51500;DHT22;39101;53.478;6.158;2023-01-30T16:27:19;6.40;99.90
51500;DHT22;39101;53.478;6.158;2023-01-30T16:29:51;6.40;99.90
51500;DHT22;39101;53.478;6.158;2023-01-30T16:32:24;6.80;99.90
51500;DHT22;39101;53.478;6.158;2023-01-30T16:37:54;6.50;99.90
51500;DHT22;39101;53.478;6.158;2023-01-30T16:40:26;6.40;99.90
51500;DHT22;39101;53.478;6.158;2023-01-30T16:43:00;6.10;99.90
51500;DHT22;39101;53.478;6.158;2023-01-30T16:48:22;6.00;99.90
51500;DHT22;39101;53.478;6.158;2023-01-30T16:53:24;6.30;99.90
51500;DHT22;39101;53.478;6.158;2023-01-30T16:58:26;6.20;99.90
51500;DHT22;39101;53.478;6.158;2023-01-30T17:00:58;6.50;99.90
51500;DHT22;39101;53.478;6.158;2023-01-30T17:03:28;6.50;99.90
51500;DHT22;39101;53.478;6.158;2023-01-30T17:05:57;6.40;99.90
51500;DHT22;39101;53.478;6.158;2023-01-30T17:11:40;6.60;99.90
51500;DHT22;39101;53.478;6.158;2023-01-30T17:14:23;6.70;99.90
51500;DHT22;39101;53.478;6.158;2023-01-30T17:17:03;6.30;99.90
51500;DHT22;39101;53.478;6.158;2023-01-30T17:19:34;6.50;99.90
51500;DHT22;39101;53.478;6.158;2023-01-30T17:22:02;6.60;99.90
51500;DHT22;39101;53.478;6.158;2023-01-30T17:24:29;6.50;99.90
51500;DHT22;39101;53.478;6.158;2023-01-30T17:27:01;6.20;99.90
51500;DHT22;39101;53.478;6.158;2023-01-30T17:29:29;6.50;99.90
51500;DHT22;39101;53.478;6.158;2023-01-30T17:31:56;6.50;99.90
51500;DHT22;39101;53.478;6.158;2023-01-30T17:34:22;6.20;99.90
51500;DHT22;39101;53.478;6.158;2023-01-30T17:36:49;6.30;99.90
51500;DHT22;39101;53.478;6.158;2023-01-30T17:39:18;6.20;99.90
51500;DHT22;39101;53.478;6.158;2023-01-30T17:41:44;6.50;99.90
51500;DHT22;39101;53.478;6.158;2023-01-30T17:44:11;6.50;99.90
51500;DHT22;39101;53.478;6.158;2023-01-30T17:46:45;6.20;99.90
51500;DHT22;39101;53.478;6.158;2023-01-30T17:49:17;6.50;99.90
51500;DHT22;39101;53.478;6.158;2023-01-30T17:51:43;6.60;99.90
51500;DHT22;39101;53.478;6.158;2023-01-30T17:54:10;6.30;99.90
51500;DHT22;39101;53.478;6.158;2023-01-30T17:56:38;6.50;99.90
51500;DHT22;39101;53.478;6.158;2023-01-30T17:59:14;6.30;99.90
51500;DHT22;39101;53.478;6.158;2023-01-30T18:01:41;6.20;99.90
51500;DHT22;39101;53.478;6.158;2023-01-30T18:04:07;6.10;99.90
51500;DHT22;39101;53.478;6.158;2023-01-30T18:06:33;6.50;99.90
51500;DHT22;39101;53.478;6.158;2023-01-30T18:08:59;6.40;99.90
51500;DHT22;39101;53.478;6.158;2023-01-30T18:11:25;6.20;99.90
51500;DHT22;39101;53.478;6.158;2023-01-30T18:13:51;6.40;99.90
51500;DHT22;39101;53.478;6.158;2023-01-30T18:16:23;6.20;99.90
51500;DHT22;39101;53.478;6.158;2023-01-30T18:18:51;6.10;99.90
51500;DHT22;39101;53.478;6.158;2023-01-30T18:21:17;6.10;99.90
51500;DHT22;39101;53.478;6.158;2023-01-30T18:23:42;6.20;99.90
51500;DHT22;39101;53.478;6.158;2023-01-30T18:26:11;6.10;99.90
51500;DHT22;39101;53.478;6.158;2023-01-30T18:28:38;6.00;99.90
51500;DHT22;39101;53.478;6.158;2023-01-30T18:31:04;6.00;99.90
51500;DHT22;39101;53.478;6.158;2023-01-30T18:33:31;6.20;99.90
51500;DHT22;39101;53.478;6.158;2023-01-30T18:35:57;6.10;99.90
51500;DHT22;39101;53.478;6.158;2023-01-30T18:38:22;6.10;99.90
51500;DHT22;39101;53.478;6.158;2023-01-30T18:40:48;6.40;99.90
51500;DHT22;39101;53.478;6.158;2023-01-30T18:43:14;6.30;99.90
51500;DHT22;39101;53.478;6.158;2023-01-30T18:45:39;6.10;99.90
51500;DHT22;39101;53.478;6.158;2023-01-30T18:48:05;6.20;99.90
51500;DHT22;39101;53.478;6.158;2023-01-30T18:50:31;6.20;99.90
51500;DHT22;39101;53.478;6.158;2023-01-30T18:52:57;6.60;99.90
51500;DHT22;39101;53.478;6.158;2023-01-30T18:55:22;6.50;99.90
51500;DHT22;39101;53.478;6.158;2023-01-30T18:57:50;6.20;99.90
51500;DHT22;39101;53.478;6.158;2023-01-30T19:00:17;6.20;99.90
51500;DHT22;39101;53.478;6.158;2023-01-30T19:02:43;6.40;99.90
51500;DHT22;39101;53.478;6.158;2023-01-30T19:05:09;6.60;99.90
51500;DHT22;39101;53.478;6.158;2023-01-30T19:07:34;6.50;99.90
51500;DHT22;39101;53.478;6.158;2023-01-30T19:10:01;6.60;99.90